createdAt,value
2019-02-28T00:02:21.129Z,2.06
2019-02-28T00:04:45.507Z,2.05
2019-02-28T00:07:17.588Z,1.87
2019-02-28T00:09:44.033Z,1.90
2019-02-28T00:12:14.292Z,1.93
2019-02-28T00:14:42.403Z,1.94
2019-02-28T00:17:11.607Z,1.95
2019-02-28T00:19:40.878Z,1.98
2019-02-28T00:22:11.337Z,1.98
2019-02-28T00:24:39.506Z,2.00
2019-02-28T00:27:08.559Z,1.96
2019-02-28T00:29:37.948Z,1.99
2019-02-28T00:32:07.864Z,1.93
2019-02-28T00:34:39.321Z,1.97
2019-02-28T00:37:06.764Z,1.91
2019-02-28T00:39:36.070Z,1.88
2019-02-28T00:42:06.412Z,1.85
2019-02-28T00:44:35.552Z,1.96
2019-02-28T00:47:04.665Z,1.90
2019-02-28T00:49:35.263Z,1.85
2019-02-28T00:52:04.491Z,1.76
2019-02-28T00:54:33.321Z,1.72
2019-02-28T00:57:03.131Z,1.78
2019-02-28T00:59:32.462Z,1.72
2019-02-28T01:02:02.104Z,1.65
2019-02-28T01:04:31.090Z,1.63
2019-02-28T01:07:00.195Z,1.59
2019-02-28T01:09:30.177Z,1.66
2019-02-28T01:11:58.405Z,1.65
2019-02-28T01:14:27.575Z,1.63
2019-02-28T01:16:56.676Z,1.60
2019-02-28T01:19:25.836Z,1.55
2019-02-28T01:21:56.309Z,1.58
2019-02-28T01:24:25.635Z,1.58
2019-02-28T01:26:54.862Z,1.52
2019-02-28T01:29:24.040Z,1.52
2019-02-28T01:31:53.802Z,1.49
2019-02-28T01:34:23.156Z,1.46
2019-02-28T01:36:51.996Z,1.47
2019-02-28T01:39:21.916Z,1.46
2019-02-28T01:41:51.503Z,1.46
2019-02-28T01:44:20.771Z,1.52
2019-02-28T01:46:49.755Z,1.44
2019-02-28T01:49:18.971Z,1.40
2019-02-28T01:51:48.258Z,1.43
2019-02-28T01:54:17.868Z,1.45
2019-02-28T01:56:46.886Z,1.43
2019-02-28T01:59:16.157Z,1.47
2019-02-28T02:01:45.357Z,1.41
2019-02-28T02:04:14.811Z,1.42
2019-02-28T02:06:43.933Z,1.51
2019-02-28T02:09:13.145Z,1.47
2019-02-28T02:11:42.072Z,1.38
2019-02-28T02:14:11.869Z,1.35
2019-02-28T02:16:40.346Z,1.43
2019-02-28T02:19:09.799Z,1.48
2019-02-28T02:21:39.250Z,1.46
2019-02-28T02:24:08.452Z,1.49
2019-02-28T02:26:37.777Z,1.41
2019-02-28T02:29:07.049Z,1.37
2019-02-28T02:31:36.260Z,1.40
2019-02-28T02:34:05.626Z,1.42
2019-02-28T02:36:35.030Z,1.30
2019-02-28T02:39:05.196Z,1.40
2019-02-28T02:41:34.901Z,1.42
2019-02-28T02:44:04.293Z,1.41
2019-02-28T02:46:33.190Z,1.36
2019-02-28T02:49:02.283Z,1.33
2019-02-28T02:51:31.591Z,1.31
2019-02-28T02:54:00.808Z,1.31
2019-02-28T02:56:29.875Z,1.32
2019-02-28T02:59:01.223Z,1.25
2019-02-28T03:01:28.708Z,1.24
2019-02-28T03:03:57.483Z,1.23
2019-02-28T03:06:26.584Z,1.24
2019-02-28T03:08:55.823Z,1.22
2019-02-28T03:11:26.057Z,1.20
2019-02-28T03:13:54.879Z,1.26
2019-02-28T03:16:24.411Z,1.27
2019-02-28T03:18:56.494Z,1.34
2019-02-28T03:21:22.577Z,1.25
2019-02-28T03:23:51.805Z,1.23
2019-02-28T03:26:20.670Z,1.28
2019-02-28T03:28:49.629Z,1.21
2019-02-28T03:31:18.779Z,1.27
2019-02-28T03:33:47.927Z,1.24
2019-02-28T03:36:16.983Z,1.25
2019-02-28T03:38:49.786Z,1.23
2019-02-28T03:41:17.705Z,1.35
2019-02-28T03:43:44.861Z,1.30
2019-02-28T03:46:13.877Z,1.28
2019-02-28T03:48:43.465Z,1.33
2019-02-28T03:51:12.715Z,1.30
2019-02-28T03:53:42.475Z,1.20
2019-02-28T03:56:14.314Z,1.28
2019-02-28T03:58:42.865Z,1.10
2019-02-28T04:01:10.374Z,1.13
2019-02-28T04:03:39.370Z,1.07
2019-02-28T04:06:09.284Z,1.00
2019-02-28T04:08:38.287Z,0.95
2019-02-28T04:11:07.343Z,0.88
2019-02-28T04:13:36.389Z,0.93
2019-02-28T04:16:09.183Z,0.91
2019-02-28T04:18:34.567Z,0.80
2019-02-28T04:21:03.760Z,0.85
2019-02-28T04:23:36.113Z,0.92
2019-02-28T04:26:02.265Z,0.89
2019-02-28T04:28:31.253Z,0.91
2019-02-28T04:31:00.387Z,0.88
2019-02-28T04:33:29.642Z,0.78
2019-02-28T04:36:00.617Z,0.79
2019-02-28T04:38:27.766Z,0.83
2019-02-28T04:40:58.855Z,0.73
2019-02-28T04:43:26.032Z,0.73
2019-02-28T04:45:57.653Z,0.77
2019-02-28T04:48:25.098Z,0.74
2019-02-28T04:50:54.103Z,0.72
2019-02-28T04:53:23.261Z,0.81
2019-02-28T04:55:52.226Z,0.68
2019-02-28T04:58:22.346Z,0.68
2019-02-28T05:00:51.267Z,0.70
2019-02-28T05:03:20.919Z,0.72
2019-02-28T05:05:49.944Z,0.60
2019-02-28T05:08:19.895Z,0.59
2019-02-28T05:10:49.139Z,0.66
2019-02-28T05:13:22.771Z,0.62
2019-02-28T05:15:52.777Z,0.62
2019-02-28T05:18:21.763Z,0.66
2019-02-28T05:37:35.632Z,0.89
2019-02-28T05:40:06.148Z,1.05
2019-02-28T05:42:34.592Z,0.96
2019-02-28T05:45:04.313Z,0.96
2019-02-28T05:47:33.340Z,0.98
2019-02-28T05:50:02.754Z,1.05
2019-02-28T05:52:33.753Z,1.07
2019-02-28T05:55:00.772Z,1.14
2019-02-28T05:57:30.014Z,1.24
2019-02-28T06:00:01.951Z,1.28
2019-02-28T06:02:28.671Z,1.34
2019-02-28T06:04:57.610Z,1.30
2019-02-28T06:07:28.751Z,1.34
2019-02-28T06:09:55.767Z,1.67
2019-02-28T06:12:24.876Z,1.72
2019-02-28T06:14:54.316Z,1.75
2019-02-28T06:17:24.079Z,1.84
2019-02-28T06:19:53.428Z,1.86
2019-02-28T06:22:22.634Z,1.88
2019-02-28T06:24:51.778Z,1.93
2019-02-28T06:27:20.927Z,1.95
2019-02-28T06:29:50.667Z,2.08
2019-02-28T06:32:23.299Z,2.12
2019-02-28T06:34:48.810Z,2.28
2019-02-28T06:37:17.906Z,2.36
2019-02-28T06:39:46.941Z,2.44
2019-02-28T06:42:16.051Z,2.51
2019-02-28T06:44:45.420Z,2.68
2019-02-28T06:47:14.804Z,2.62
2019-02-28T06:49:43.448Z,2.68
2019-02-28T06:52:13.305Z,2.84
2019-02-28T06:54:42.242Z,2.89
2019-02-28T06:57:11.508Z,2.98
2019-02-28T06:59:40.478Z,3.18
2019-02-28T07:02:09.927Z,3.16
2019-02-28T07:04:38.799Z,3.29
2019-02-28T07:07:10.260Z,3.34
2019-02-28T07:09:37.264Z,3.28
2019-02-28T07:12:06.877Z,3.32
2019-02-28T07:14:36.621Z,3.33
2019-02-28T07:17:07.691Z,3.41
2019-02-28T07:19:34.988Z,3.36
2019-02-28T07:22:04.133Z,3.40
2019-02-28T07:24:37.305Z,3.52
2019-02-28T07:27:04.254Z,3.63
2019-02-28T07:29:32.159Z,3.73
2019-02-28T07:32:01.661Z,3.78
2019-02-28T07:34:31.115Z,3.97
2019-02-28T07:37:00.408Z,3.91
2019-02-28T07:39:29.432Z,4.09
2019-02-28T07:42:02.227Z,4.22
2019-02-28T07:44:28.395Z,4.10
2019-02-28T07:46:57.735Z,4.13
2019-02-28T07:49:27.428Z,4.39
2019-02-28T07:51:57.217Z,4.32
2019-02-28T07:54:26.012Z,4.31
2019-02-28T07:56:55.235Z,4.51
2019-02-28T07:59:24.638Z,4.46
2019-02-28T08:01:53.763Z,4.44
2019-02-28T08:04:22.915Z,4.45
2019-02-28T08:06:52.327Z,4.68
2019-02-28T08:09:26.091Z,4.83
2019-02-28T08:11:56.737Z,4.93
2019-02-28T08:14:24.536Z,4.75
2019-02-28T08:16:53.672Z,4.92
2019-02-28T08:19:27.196Z,5.05
2019-02-28T08:21:52.873Z,5.12
2019-02-28T08:24:22.704Z,5.46
2019-02-28T08:26:53.501Z,5.47
2019-02-28T08:29:21.087Z,5.56
2019-02-28T08:31:50.974Z,5.96
2019-02-28T08:34:20.639Z,6.29
2019-02-28T08:36:49.248Z,6.23
2019-02-28T08:39:18.534Z,6.33
2019-02-28T08:41:49.544Z,6.63
2019-02-28T08:44:22.806Z,6.71
2019-02-28T09:03:32.268Z,7.13
2019-02-28T09:06:04.191Z,6.88
2019-02-28T09:08:31.068Z,7.10
2019-02-28T09:11:01.924Z,7.46
2019-02-28T09:13:31.156Z,7.89
2019-02-28T09:16:01.983Z,7.84
2019-02-28T09:18:29.424Z,7.98
2019-02-28T09:20:58.576Z,8.16
2019-02-28T09:23:28.134Z,8.40
2019-02-28T09:25:57.655Z,8.02
2019-02-28T09:28:27.470Z,8.26
2019-02-28T09:30:57.253Z,8.57
2019-02-28T09:33:26.349Z,8.39
2019-02-28T09:35:55.342Z,8.31
2019-02-28T09:38:24.603Z,8.15
2019-02-28T09:40:54.047Z,8.47
2019-02-28T09:43:23.847Z,8.58
2019-02-28T09:45:52.115Z,8.82
2019-02-28T09:48:21.292Z,8.80
2019-02-28T09:50:50.337Z,8.89
2019-02-28T09:53:19.341Z,9.04
2019-02-28T09:55:48.418Z,8.70
2019-02-28T09:58:17.560Z,8.46
2019-02-28T10:00:50.212Z,9.02
2019-02-28T10:03:18.650Z,9.30
2019-02-28T10:05:45.356Z,9.19
2019-02-28T10:08:15.290Z,9.49
2019-02-28T10:10:44.678Z,9.40
2019-02-28T10:13:14.550Z,9.62
2019-02-28T10:15:43.236Z,9.37
2019-02-28T10:18:12.641Z,9.50
2019-02-28T10:20:42.075Z,9.45
2019-02-28T10:23:11.252Z,9.91
2019-02-28T10:25:43.505Z,9.78
2019-02-28T10:28:10.459Z,10.01
2019-02-28T10:30:40.571Z,9.85
2019-02-28T10:33:09.671Z,10.10
2019-02-28T10:35:38.919Z,10.13
2019-02-28T10:38:08.179Z,10.03
2019-02-28T10:40:37.272Z,10.20
2019-02-28T10:43:06.512Z,10.26
2019-02-28T10:45:41.265Z,10.33
2019-02-28T10:48:05.436Z,10.16
2019-02-28T10:50:34.866Z,10.11
2019-02-28T10:53:05.747Z,10.30
2019-02-28T10:55:33.369Z,10.60
2019-02-28T10:58:03.093Z,10.81
2019-02-28T11:00:33.709Z,11.04
2019-02-28T11:03:02.147Z,10.95
2019-02-28T11:05:32.097Z,10.76
2019-02-28T11:08:01.760Z,10.72
2019-02-28T11:10:35.499Z,11.30
2019-02-28T11:13:01.669Z,11.60
2019-02-28T11:15:30.861Z,11.97
2019-02-28T11:18:00.375Z,11.79
2019-02-28T11:20:30.160Z,11.88
2019-02-28T11:22:59.207Z,11.87
2019-02-28T11:25:28.275Z,11.60
2019-02-28T11:27:57.433Z,11.89
2019-02-28T11:30:26.703Z,12.39
2019-02-28T11:32:55.772Z,12.53
2019-02-28T11:35:25.544Z,12.52
2019-02-28T11:37:54.784Z,12.92
2019-02-28T11:40:24.791Z,12.98
2019-02-28T11:42:53.987Z,12.90
2019-02-28T11:45:25.558Z,13.33
2019-02-28T11:47:54.990Z,13.46
2019-02-28T11:50:24.266Z,13.58
2019-02-28T11:52:53.566Z,13.76
2019-02-28T11:55:22.926Z,13.62
2019-02-28T11:57:52.352Z,13.80
2019-02-28T12:00:25.799Z,13.74
2019-02-28T12:02:59.915Z,13.94
2019-02-28T12:05:24.591Z,14.12
2019-02-28T12:07:53.807Z,14.43
2019-02-28T12:10:26.909Z,14.66
2019-02-28T12:12:52.842Z,14.77
2019-02-28T12:15:23.238Z,15.03
2019-02-28T12:17:52.196Z,15.01
2019-02-28T12:20:25.914Z,15.07
2019-02-28T12:22:50.638Z,14.96
2019-02-28T12:25:20.190Z,14.85
2019-02-28T12:27:49.906Z,14.75
2019-02-28T12:30:21.948Z,14.77
2019-02-28T12:32:52.465Z,15.11
2019-02-28T12:35:19.960Z,14.84
2019-02-28T12:37:49.909Z,15.48
2019-02-28T12:40:21.224Z,15.92
2019-02-28T12:42:50.325Z,16.06
2019-02-28T12:45:24.405Z,16.06
2019-02-28T12:47:51.189Z,16.38
2019-02-28T12:50:20.589Z,16.62
2019-02-28T12:52:50.075Z,15.88
2019-02-28T12:55:18.878Z,15.71
2019-02-28T12:57:49.136Z,16.18
2019-02-28T13:00:23.405Z,16.43
2019-02-28T13:02:50.471Z,16.19
2019-02-28T13:05:20.432Z,16.05
2019-02-28T13:07:50.516Z,16.29
2019-02-28T13:10:20.109Z,16.59
2019-02-28T13:12:49.895Z,16.73
2019-02-28T13:15:18.847Z,16.75
2019-02-28T13:17:47.963Z,16.89
2019-02-28T13:20:18.595Z,17.22
2019-02-28T13:22:48.419Z,17.20
2019-02-28T13:25:19.476Z,16.99
2019-02-28T13:27:46.839Z,17.14
2019-02-28T13:30:18.189Z,18.47
2019-02-28T13:32:47.516Z,18.63
2019-02-28T13:35:18.685Z,19.39
2019-02-28T13:37:48.003Z,19.45
2019-02-28T13:40:17.488Z,19.18
2019-02-28T13:42:47.252Z,18.90
2019-02-28T13:45:23.303Z,18.36
2019-02-28T13:47:47.821Z,18.87
2019-02-28T13:50:17.511Z,19.23
2019-02-28T13:52:47.020Z,19.96
2019-02-28T13:55:18.989Z,19.91
2019-02-28T13:57:46.839Z,19.87
2019-02-28T14:00:22.041Z,20.23
2019-02-28T14:02:52.850Z,20.78
2019-02-28T14:05:21.934Z,20.64
2019-02-28T14:07:52.717Z,21.12
2019-02-28T14:10:22.222Z,20.47
2019-02-28T14:12:53.235Z,19.85
2019-02-28T14:15:24.990Z,19.99
2019-02-28T14:17:52.109Z,19.97
2019-02-28T14:20:24.397Z,18.79
2019-02-28T14:22:50.757Z,18.91
2019-02-28T14:25:20.835Z,19.25
2019-02-28T14:27:49.918Z,18.87
2019-02-28T14:30:22.767Z,18.27
2019-02-28T14:32:49.876Z,17.67
2019-02-28T14:35:22.706Z,17.89
2019-02-28T14:37:51.805Z,17.84
2019-02-28T14:40:18.785Z,18.68
2019-02-28T14:42:47.596Z,17.80
2019-02-28T14:45:17.013Z,17.90
2019-02-28T14:47:46.083Z,18.25
2019-02-28T14:50:15.496Z,18.11
2019-02-28T14:52:44.993Z,17.93
2019-02-28T14:55:15.669Z,17.63
2019-02-28T14:57:44.832Z,17.80
2019-02-28T15:00:17.256Z,17.72
2019-02-28T15:02:46.807Z,17.30
2019-02-28T15:05:16.609Z,16.77
2019-02-28T15:07:45.860Z,16.22
2019-02-28T15:10:16.569Z,14.92
2019-02-28T15:12:45.627Z,14.63
2019-02-28T15:15:18.023Z,14.55
2019-02-28T15:17:45.499Z,14.38
2019-02-28T15:20:14.796Z,13.99
2019-02-28T15:22:43.921Z,13.60
2019-02-28T15:25:15.333Z,13.41
2019-02-28T15:27:43.533Z,13.28
2019-02-28T15:30:14.880Z,13.23
2019-02-28T15:32:43.875Z,13.13
2019-02-28T15:35:15.369Z,12.96
2019-02-28T15:37:44.048Z,12.92
2019-02-28T15:56:59.246Z,12.55
2019-02-28T15:59:28.621Z,12.53
2019-02-28T16:01:57.673Z,12.43
2019-02-28T16:04:27.015Z,12.37
2019-02-28T16:06:57.944Z,12.30
2019-02-28T16:09:24.987Z,12.23
2019-02-28T16:11:54.335Z,12.16
2019-02-28T16:14:23.579Z,12.07
2019-02-28T16:16:52.854Z,12.00
2019-02-28T16:19:22.827Z,11.86
2019-02-28T16:21:51.793Z,11.80
2019-02-28T16:41:06.710Z,11.30
2019-02-28T16:43:35.803Z,11.39
2019-02-28T17:02:50.463Z,11.02
2019-02-28T17:22:05.623Z,10.76
2019-02-28T17:24:34.927Z,10.77
2019-02-28T17:27:09.200Z,10.40
2019-02-28T17:46:25.319Z,10.32
2019-02-28T17:49:04.647Z,10.45
2019-02-28T17:51:55.502Z,10.50
2019-02-28T17:54:29.499Z,10.50
2019-02-28T17:57:05.704Z,10.62
2019-02-28T17:59:44.924Z,10.61
2019-02-28T18:02:25.802Z,10.72
2019-02-28T18:05:29.877Z,10.83
2019-02-28T18:08:02.667Z,10.82
2019-02-28T18:10:46.189Z,10.76
2019-02-28T18:13:21.928Z,10.77
2019-02-28T18:16:01.599Z,10.73
2019-02-28T18:19:44.167Z,10.79
2019-02-28T18:24:37.939Z,10.72
2019-02-28T18:28:27.311Z,10.52
2019-02-28T18:31:06.046Z,10.49
2019-02-28T18:33:35.412Z,10.56
2019-02-28T18:36:08.460Z,10.43
2019-02-28T18:38:36.498Z,10.19
2019-02-28T18:41:06.448Z,9.93
2019-02-28T18:43:34.399Z,9.76
2019-02-28T18:46:03.604Z,8.88
2019-02-28T18:48:32.858Z,8.79
2019-02-28T18:51:02.029Z,8.40
2019-02-28T18:53:31.068Z,7.99
2019-02-28T18:56:00.278Z,7.60
2019-02-28T18:58:29.608Z,7.57
2019-02-28T19:00:58.889Z,7.58
2019-02-28T19:03:28.082Z,7.57
2019-02-28T19:05:57.407Z,7.65
2019-02-28T19:08:26.935Z,7.47
2019-02-28T19:10:55.982Z,7.33
2019-02-28T19:13:24.987Z,7.38
2019-02-28T19:15:54.452Z,7.32
2019-02-28T19:18:23.876Z,7.27
2019-02-28T19:20:55.660Z,7.21
2019-02-28T19:23:23.501Z,6.97
2019-02-28T19:25:52.474Z,7.04
2019-02-28T19:28:21.787Z,6.81
2019-02-28T19:30:50.883Z,6.91
2019-02-28T19:33:21.485Z,6.69
2019-02-28T19:35:51.112Z,6.44
2019-02-28T19:38:20.501Z,6.74
2019-02-28T19:40:49.590Z,6.69
2019-02-28T19:43:18.679Z,6.70
2019-02-28T19:45:47.679Z,6.61
2019-02-28T19:48:16.739Z,6.64
2019-02-28T19:50:45.995Z,6.54
2019-02-28T19:53:15.207Z,6.61
2019-02-28T19:55:44.321Z,6.20
2019-02-28T19:58:13.410Z,6.18
2019-02-28T20:00:42.996Z,6.27
2019-02-28T20:03:12.047Z,6.16
2019-02-28T20:05:41.104Z,6.05
2019-02-28T20:08:10.099Z,6.08
2019-02-28T20:10:39.980Z,6.05
2019-02-28T20:13:09.561Z,5.98
2019-02-28T20:15:39.985Z,5.93
2019-02-28T20:18:09.275Z,5.96
2019-02-28T20:20:38.123Z,5.77
2019-02-28T20:23:07.218Z,5.74
2019-02-28T20:25:36.312Z,5.68
2019-02-28T20:44:49.650Z,5.54
2019-02-28T20:47:18.575Z,5.35
2019-02-28T20:49:47.574Z,5.25
2019-02-28T20:52:16.690Z,5.34
2019-02-28T20:54:45.533Z,5.00
2019-02-28T20:57:14.845Z,5.18
2019-02-28T20:59:44.040Z,5.08
2019-02-28T21:02:13.228Z,5.03
2019-02-28T21:04:42.139Z,4.94
2019-02-28T21:07:11.315Z,4.89
2019-02-28T21:09:44.957Z,4.79
2019-02-28T21:12:10.248Z,4.77
2019-02-28T21:14:39.416Z,4.73
2019-02-28T21:17:08.760Z,4.55
2019-02-28T21:19:39.189Z,4.86
2019-02-28T21:22:08.681Z,5.05
2019-02-28T21:24:38.493Z,5.11
2019-02-28T21:27:07.525Z,5.16
2019-02-28T21:29:36.427Z,4.99
2019-02-28T21:32:05.555Z,5.04
2019-02-28T21:34:34.797Z,4.97
2019-02-28T21:37:03.977Z,4.96
2019-02-28T21:56:16.898Z,4.53
2019-02-28T21:58:46.277Z,4.61
2019-02-28T22:18:01.081Z,4.57
2019-02-28T22:20:30.384Z,4.55
2019-02-28T22:22:59.570Z,4.51
2019-02-28T22:25:28.798Z,4.55
2019-02-28T22:27:58.263Z,4.63
2019-02-28T22:30:42.122Z,4.54
2019-02-28T22:33:15.391Z,4.57
2019-02-28T22:35:49.548Z,4.58
2019-02-28T22:38:19.114Z,4.57
2019-02-28T22:40:48.564Z,4.65
2019-02-28T22:43:17.958Z,4.41
2019-02-28T22:45:47.030Z,4.31
2019-02-28T22:48:16.250Z,4.28
2019-02-28T22:50:45.795Z,4.28
2019-02-28T22:53:14.867Z,4.35
2019-02-28T22:55:44.685Z,4.27
2019-02-28T22:58:14.394Z,4.24
2019-02-28T23:00:55.283Z,4.36
2019-02-28T23:03:25.081Z,4.52
2019-02-28T23:05:54.168Z,4.02
2019-02-28T23:08:23.265Z,3.92
2019-02-28T23:10:52.519Z,4.03
2019-02-28T23:13:22.262Z,3.98
2019-02-28T23:15:51.581Z,3.65
2019-02-28T23:18:20.906Z,3.70
2019-02-28T23:20:51.531Z,3.57
2019-02-28T23:23:21.568Z,3.66
2019-02-28T23:25:50.503Z,3.67
2019-02-28T23:28:28.036Z,3.77
2019-02-28T23:31:37.968Z,3.69
2019-02-28T23:34:12.359Z,3.64
2019-02-28T23:36:41.187Z,3.67
2019-02-28T23:39:10.173Z,3.66
2019-02-28T23:41:39.653Z,3.63
2019-02-28T23:44:08.736Z,3.65
2019-02-28T23:46:37.975Z,3.35
2019-02-28T23:49:07.273Z,3.48
2019-02-28T23:51:37.090Z,3.57
2019-02-28T23:54:06.258Z,3.52
2019-02-28T23:56:35.419Z,3.65
2019-02-28T23:59:04.691Z,3.57
